Time;durP1;ratioP1;P1;durP2;ratioP2;P2;SDS_P1;SDS_P2;PMS_P1;PMS_P2;Temp;Humidity;BMP_temperature;BMP_pressure;BME280_temperature;BME280_humidity;BME280_pressure;Samples;Min_cycle;Max_cycle;Signal;HPM_P1;HPM_P2
2022/08/23 00:01:33;;;;;;;14.05;9.52;;;;;;;19.40;65.24;93334.63;4971699;28;20022;-81
2022/08/23 00:04:03;;;;;;;16.05;10.02;;;;;;;19.48;65.39;93347.00;4973468;28;20030;-81
2022/08/23 00:06:29;;;;;;;14.30;9.52;;;;;;;19.63;65.43;93366.72;4972313;28;20771;-81
2022/08/23 00:08:55;;;;;;;21.17;10.13;;;;;;;19.62;65.52;93374.03;4971397;28;20014;-81
2022/08/23 00:11:27;;;;;;;18.30;10.40;;;;;;;19.56;65.86;93364.75;4973285;28;20533;-80
2022/08/23 00:13:52;;;;;;;15.88;9.88;;;;;;;19.36;65.80;93333.81;4958049;28;20026;-80
2022/08/23 00:16:18;;;;;;;16.85;9.70;;;;;;;19.66;65.82;93369.41;4972844;28;20045;-80
2022/08/23 00:18:43;;;;;;;16.08;9.95;;;;;;;19.60;66.32;93357.44;4972696;28;20035;-81
2022/08/23 00:21:10;;;;;;;15.52;9.35;;;;;;;19.70;66.45;93372.88;4954206;28;20398;-80
2022/08/23 00:23:35;;;;;;;15.77;9.60;;;;;;;19.69;66.17;93368.66;4970435;28;20077;-80
2022/08/23 00:26:01;;;;;;;14.45;8.88;;;;;;;19.82;66.09;93362.91;4973460;28;20033;-80
2022/08/23 00:28:27;;;;;;;12.85;8.85;;;;;;;19.68;66.30;93339.38;4972253;28;20384;-80
2022/08/23 00:30:53;;;;;;;12.68;9.05;;;;;;;19.83;66.16;93359.84;4971917;28;20018;-80
2022/08/23 00:33:18;;;;;;;14.55;8.38;;;;;;;19.92;65.85;93370.25;4971498;28;20062;-80
2022/08/23 00:35:43;;;;;;;15.25;10.40;;;;;;;19.81;65.84;93345.94;4971793;28;20546;-81
2022/08/23 00:38:09;;;;;;;12.20;9.23;;;;;;;19.79;65.80;93345.56;4970931;28;20170;-80
2022/08/23 00:40:34;;;;;;;15.10;8.75;;;;;;;19.97;65.98;93372.59;4972325;28;20618;-83
2022/08/23 00:48:43;;;;;;;14.18;9.05;;;;;;;19.79;65.80;93345.56;4971115;28;20037;-80
2022/08/23 00:51:14;;;;;;;12.05;8.95;;;;;;;19.87;65.64;93357.13;4969566;28;20030;-81
2022/08/23 00:53:49;;;;;;;10.55;8.85;;;;;;;19.79;65.45;93350.19;4971382;28;20088;-82
2022/08/23 00:56:17;;;;;;;13.32;9.98;;;;;;;19.73;65.38;93360.59;4970420;28;20066;-81
2022/08/23 00:58:44;;;;;;;13.70;9.38;;;;;;;19.79;65.22;93374.47;4960501;28;20403;-82
2022/08/23 01:01:11;;;;;;;11.40;7.90;;;;;;;19.74;65.41;93373.69;4970677;28;20026;-81
2022/08/23 01:03:41;;;;;;;12.00;8.65;;;;;;;19.57;65.82;93357.44;4971318;28;20065;-80
2022/08/23 01:06:10;;;;;;;10.98;7.90;;;;;;;19.66;65.46;93379.44;4971629;28;20026;-82
2022/08/23 01:08:37;;;;;;;11.85;8.27;;;;;;;19.57;65.67;93366.31;4971269;28;20022;-80
2022/08/23 01:11:10;;;;;;;12.43;8.70;;;;;;;19.67;65.62;93379.06;4970402;28;20053;-83
2022/08/23 01:13:42;;;;;;;12.68;8.05;;;;;;;19.61;65.41;93360.91;4970491;28;20026;-81
2022/08/23 01:16:20;;;;;;;13.27;7.65;;;;;;;19.72;65.40;93389.47;4972467;28;20027;-82
2022/08/23 01:18:46;;;;;;;13.07;8.27;;;;;;;19.64;65.60;93371.75;4971908;28;20085;-81
2022/08/23 01:21:20;;;;;;;13.10;8.45;;;;;;;19.56;65.18;93356.66;4969749;28;20058;-82
2022/08/23 01:23:59;;;;;;;14.73;8.93;;;;;;;19.70;65.00;93367.50;4971744;28;20038;-81
2022/08/23 01:26:25;;;;;;;15.73;8.75;;;;;;;19.79;64.84;93387.97;4969715;28;20034;-81
2022/08/23 01:28:53;;;;;;;12.07;7.85;;;;;;;19.54;65.07;93356.28;4970642;28;20484;-80
2022/08/23 01:31:21;;;;;;;13.93;7.95;;;;;;;19.78;64.76;93389.88;4970085;28;20461;-81
2022/08/23 01:33:57;;;;;;;14.90;8.75;;;;;;;19.50;64.93;93341.25;4972039;28;20487;-80
2022/08/23 01:36:23;;;;;;;17.55;8.98;;;;;;;19.63;65.36;93364.78;4971793;28;20038;-81
2022/08/23 01:38:49;;;;;;;11.77;8.85;;;;;;;19.65;65.25;93365.16;4969397;28;20037;-82
2022/08/23 01:41:15;;;;;;;10.07;7.65;;;;;;;19.59;64.95;93347.06;4972060;28;20121;-81
2022/08/23 01:43:40;;;;;;;12.05;8.38;;;;;;;19.80;65.29;93376.78;4972909;28;20022;-81
2022/08/23 01:46:13;;;;;;;12.35;7.15;;;;;;;19.80;65.34;93373.31;4972540;28;20026;-81
2022/08/23 01:48:40;;;;;;;14.88;8.80;;;;;;;19.52;65.59;93342.41;4961719;28;20092;-79
2022/08/23 01:51:06;;;;;;;17.23;9.00;;;;;;;19.60;65.79;93343.94;4974857;28;20058;-81
2022/08/23 01:53:32;;;;;;;14.15;9.00;;;;;;;19.80;65.72;93390.25;4962927;28;20402;-82
2022/08/23 01:56:00;;;;;;;12.93;8.63;;;;;;;19.84;66.02;93385.69;4974330;28;20034;-81
2022/08/23 01:58:26;;;;;;;11.68;8.35;;;;;;;19.43;65.82;93320.38;4975439;28;20411;-80
2022/08/23 02:00:52;;;;;;;15.27;8.75;;;;;;;19.62;66.40;93352.44;4976001;28;20023;-81
2022/08/23 02:03:18;;;;;;;13.85;9.05;;;;;;;19.52;66.20;93322.75;4974758;28;20030;-81
2022/08/23 02:05:44;;;;;;;12.68;7.82;;;;;;;19.44;66.47;93308.44;4973693;28;20029;-80
2022/08/23 02:10:54;;;;;;;16.35;8.05;;;;;;;19.87;66.10;93357.13;4972904;28;20038;-81
2022/08/23 02:13:21;;;;;;;11.23;8.40;;;;;;;19.82;66.33;93365.59;4975535;28;21303;-80
2022/08/23 02:15:50;;;;;;;11.35;7.85;;;;;;;19.81;66.11;93367.53;4973158;28;20050;-81
2022/08/23 02:18:16;;;;;;;9.73;7.15;;;;;;;19.78;65.73;93373.69;4973879;28;20397;-81
2022/08/23 02:20:47;;;;;;;9.32;6.78;;;;;;;19.42;64.03;93324.22;4975597;28;20078;-80
2022/08/23 02:23:13;;;;;;;10.27;7.18;;;;;;;19.80;64.20;93352.50;4959137;28;20093;-80
2022/08/23 02:25:39;;;;;;;10.68;7.22;;;;;;;19.44;63.54;93292.28;4958731;28;20039;-80
2022/08/23 02:28:05;;;;;;;8.02;6.43;;;;;;;19.79;63.69;93358.28;4957408;28;20027;-80
2022/08/23 02:30:31;;;;;;;11.88;6.63;;;;;;;19.53;63.62;93316.97;4974382;28;20537;-83
2022/08/23 02:32:56;;;;;;;7.82;6.00;;;;;;;19.64;62.35;93328.56;4974096;28;20384;-80
2022/08/23 02:35:22;;;;;;;8.73;5.60;;;;;;;19.82;62.85;93352.13;4956630;28;20030;-81
2022/08/23 02:37:48;;;;;;;7.22;5.47;;;;;;;19.60;62.90;93308.88;4973155;28;20034;-82
2022/08/23 02:40:14;;;;;;;7.82;6.03;;;;;;;19.78;61.43;93327.06;4973616;28;20537;-80
2022/08/23 02:42:40;;;;;;;7.70;5.18;;;;;;;19.74;61.10;93313.56;4973772;28;20464;-81
2022/08/23 02:45:07;;;;;;;7.20;4.72;;;;;;;19.66;61.22;93293.88;4973243;28;20025;-82
2022/08/23 02:47:35;;;;;;;7.35;5.60;;;;;;;19.77;61.23;93314.72;4973891;28;20569;-81
2022/08/23 02:50:02;;;;;;;6.50;4.95;;;;;;;19.80;60.72;93320.09;4975330;28;20037;-82
2022/08/23 02:52:28;;;;;;;10.32;5.53;;;;;;;19.66;61.61;93299.28;4973872;28;20573;-82
2022/08/23 02:54:53;;;;;;;9.32;5.95;;;;;;;19.30;62.22;93262.56;4974828;28;20435;-80
2022/08/23 02:57:19;;;;;;;11.02;7.25;;;;;;;19.47;62.68;93291.53;4973640;28;20034;-80
2022/08/23 02:59:44;;;;;;;9.02;6.43;;;;;;;19.69;63.55;93330.13;4958549;28;20799;-81
2022/08/23 03:02:10;;;;;;;10.38;6.63;;;;;;;19.56;64.28;93320.81;4973777;28;20023;-81
2022/08/23 03:04:35;;;;;;;10.00;6.78;;;;;;;19.51;64.19;93313.88;4957965;28;20026;-80
2022/08/23 03:07:01;;;;;;;15.68;8.02;;;;;;;19.62;64.21;93320.09;4974361;28;20434;-82
2022/08/23 03:09:26;;;;;;;8.73;6.35;;;;;;;19.58;63.83;93316.59;4974037;28;20026;-80
2022/08/23 03:11:52;;;;;;;9.60;6.00;;;;;;;19.69;63.66;93320.13;4972747;28;20929;-81
2022/08/23 03:14:17;;;;;;;10.35;6.03;;;;;;;19.56;63.57;93315.44;4971381;28;20027;-81
2022/08/23 03:16:42;;;;;;;8.30;6.13;;;;;;;19.70;63.68;93331.69;4975960;28;20031;-81
2022/08/23 03:19:08;;;;;;;7.43;5.57;;;;;;;19.51;63.26;93296.94;4973244;28;20027;-81
2022/08/23 03:21:34;;;;;;;8.18;6.00;;;;;;;19.80;62.79;93340.94;4962275;28;20057;-81
2022/08/23 03:23:59;;;;;;;8.82;6.20;;;;;;;19.81;61.94;93337.06;4972440;28;20225;-80
2022/08/23 03:26:25;;;;;;;7.93;5.70;;;;;;;19.81;62.52;93337.84;4973321;28;20058;-80
2022/08/23 03:28:50;;;;;;;7.35;5.07;;;;;;;19.47;62.62;93290.75;4974760;28;20022;-80
2022/08/23 03:31:16;;;;;;;7.15;5.43;;;;;;;19.46;62.32;93287.28;4972999;28;20029;-81
2022/08/23 03:33:42;;;;;;;7.97;5.68;;;;;;;19.91;62.32;93360.63;4961068;28;20050;-80
2022/08/23 03:36:09;;;;;;;5.70;4.80;;;;;;;19.50;62.19;93292.72;4971592;28;20026;-81
2022/08/23 03:38:37;;;;;;;7.25;5.32;;;;;;;19.80;61.84;93335.56;4974154;28;20041;-81
2022/08/23 03:41:03;;;;;;;8.95;5.10;;;;;;;19.89;62.54;93360.25;4971170;28;20022;-82
2022/08/23 03:43:29;;;;;;;6.70;4.60;;;;;;;19.48;63.14;93309.25;4955539;28;20125;-81
2022/08/23 03:45:55;;;;;;;6.65;5.13;;;;;;;19.88;62.85;93364.09;4972959;28;20640;-81
2022/08/23 03:48:20;;;;;;;8.20;5.75;;;;;;;19.32;63.66;93316.88;4973978;28;20030;-81
2022/08/23 03:50:46;;;;;;;7.07;5.20;;;;;;;19.33;64.25;93358.88;4973412;28;20435;-80
2022/08/23 03:53:11;;;;;;;7.95;5.88;;;;;;;19.51;64.11;93381.31;4971617;28;20022;-81
2022/08/23 03:55:37;;;;;;;8.35;5.57;;;;;;;19.13;65.03;93369.16;4973117;28;20026;-80
2022/08/23 03:58:05;;;;;;;11.77;5.45;;;;;;;19.41;65.37;93400.88;4972501;28;20605;-82
2022/08/23 04:00:31;;;;;;;7.93;5.90;;;;;;;18.97;65.93;93392.19;4973208;28;20507;-80
2022/08/23 04:02:56;;;;;;;9.25;6.50;;;;;;;18.94;65.28;93357.88;4972665;28;20034;-80
2022/08/23 04:05:22;;;;;;;12.32;8.25;;;;;;;19.12;65.70;93428.81;4972362;28;20146;-81
2022/08/23 04:07:47;;;;;;;9.80;7.53;;;;;;;19.15;65.80;93430.78;4970853;28;21078;-81
2022/08/23 04:10:14;;;;;;;13.35;7.65;;;;;;;18.75;67.87;93445.13;4971597;28;20023;-81
2022/08/23 04:12:40;;;;;;;10.63;7.95;;;;;;;18.99;67.30;93455.31;4971587;28;20045;-82
2022/08/23 04:15:06;;;;;;;11.63;8.10;;;;;;;18.91;67.66;93442.94;4972033;28;20026;-81
2022/08/23 04:17:32;;;;;;;12.07;8.48;;;;;;;18.53;67.21;93390.28;4973860;28;20394;-81
2022/08/23 04:19:58;;;;;;;10.90;7.47;;;;;;;18.92;67.30;93455.25;4961100;28;20499;-81
2022/08/23 04:22:23;;;;;;;11.93;7.80;;;;;;;18.86;67.43;93441.38;4971040;28;20027;-81
2022/08/23 04:24:49;;;;;;;10.90;8.13;;;;;;;18.52;68.43;93428.38;4973144;28;20030;-81
2022/08/23 04:27:15;;;;;;;17.17;9.60;;;;;;;18.89;67.83;93450.63;4970671;28;20030;-81
2022/08/23 04:29:40;;;;;;;13.23;8.70;;;;;;;18.43;67.07;93393.69;4973339;28;20085;-81
2022/08/23 04:32:11;;;;;;;12.38;8.27;;;;;;;18.25;67.83;93416.97;4960654;28;20057;-80
2022/08/23 04:34:41;;;;;;;13.48;7.07;;;;;;;18.49;67.58;93421.78;4972595;28;20678;-81
2022/08/23 04:37:08;;;;;;;14.00;8.93;;;;;;;18.61;67.33;93453.84;4969432;28;20037;-81
2022/08/23 04:42:16;;;;;;;11.15;8.07;;;;;;;18.71;66.74;93444.34;4971518;28;20026;-81
2022/08/23 04:42:21;;;;;;;15.88;7.40;;;;;;;18.96;66.19;93452.59;4972853;28;20125;-81
2022/08/23 04:44:47;;;;;;;11.98;7.22;;;;;;;18.66;66.49;93420.41;4973511;28;20082;-80
2022/08/23 04:47:12;;;;;;;15.90;9.25;;;;;;;18.34;66.15;93368.97;4971212;28;21038;-81
2022/08/23 04:49:38;;;;;;;13.45;8.23;;;;;;;18.95;65.98;93429.50;4972633;28;20160;-81
2022/08/23 04:52:03;;;;;;;12.93;9.40;;;;;;;19.23;65.39;93453.94;4971210;28;20065;-83
2022/08/23 04:54:30;;;;;;;15.95;9.02;;;;;;;19.13;65.01;93430.38;4972315;28;20117;-82
2022/08/23 04:56:55;;;;;;;12.13;8.45;;;;;;;19.13;64.77;93422.28;4955420;28;20027;-81
2022/08/23 04:59:21;;;;;;;14.63;9.48;;;;;;;19.47;65.40;93464.13;4972746;28;20034;-80
2022/08/23 05:01:46;;;;;;;13.77;8.50;;;;;;;19.57;64.90;93462.63;4957947;28;20033;-81
2022/08/23 05:04:12;;;;;;;13.65;8.32;;;;;;;19.63;64.22;93466.53;4970172;28;20170;-80
2022/08/23 05:06:37;;;;;;;15.77;8.98;;;;;;;19.56;63.73;93453.75;4971924;28;20023;-81
2022/08/23 05:09:03;;;;;;;11.50;8.43;;;;;;;19.70;63.36;93466.56;4954042;28;20026;-82
2022/08/23 05:11:29;;;;;;;15.38;10.48;;;;;;;19.68;63.91;93469.63;4968514;28;20118;-82
2022/08/23 05:13:55;;;;;;;11.20;8.10;;;;;;;19.73;63.97;93466.56;4972230;28;20458;-81
2022/08/23 05:16:21;;;;;;;11.00;8.45;;;;;;;19.75;64.60;93483.13;4969576;28;20035;-83
2022/08/23 05:18:46;;;;;;;14.45;8.10;;;;;;;19.68;64.48;93464.25;4971942;28;20131;-82
2022/08/23 05:21:16;;;;;;;12.55;8.63;;;;;;;19.75;65.12;93483.13;4971018;28;20034;-80
2022/08/23 05:23:42;;;;;;;17.20;9.00;;;;;;;19.83;65.05;93493.97;4962870;28;20051;-80
2022/08/23 05:26:10;;;;;;;15.38;9.43;;;;;;;19.82;64.88;93490.50;4974671;28;20173;-81
2022/08/23 05:28:40;;;;;;;15.98;9.98;;;;;;;19.89;65.01;93495.16;4976062;28;20026;-80
2022/08/23 05:31:11;;;;;;;12.88;9.45;;;;;;;19.68;65.24;93461.53;4959020;28;20501;-81
2022/08/23 05:33:39;;;;;;;19.73;11.23;;;;;;;19.93;65.25;93495.94;4976797;28;20097;-81
2022/08/23 05:36:05;;;;;;;17.73;10.52;;;;;;;19.72;64.89;93456.94;4974379;28;20030;-81
2022/08/23 05:38:31;;;;;;;20.00;12.30;;;;;;;19.92;64.70;93481.69;4974445;28;20026;-81
2022/08/23 05:40:57;;;;;;;17.70;12.48;;;;;;;19.99;64.66;93494.44;4975092;28;20053;-80
2022/08/23 05:43:24;;;;;;;21.15;12.20;;;;;;;19.95;65.22;93493.63;4972937;28;20022;-82
2022/08/23 05:46:01;;;;;;;22.00;11.95;;;;;;;19.86;65.07;93468.94;4973948;28;20053;-81
2022/08/23 05:48:27;;;;;;;20.65;13.52;;;;;;;20.04;65.42;93494.81;4975941;28;20030;-81
2022/08/23 05:50:53;;;;;;;20.83;13.13;;;;;;;19.72;65.45;93465.03;4962731;28;20685;-81
2022/08/23 05:53:18;;;;;;;22.40;13.52;;;;;;;19.53;66.00;93468.00;4960155;28;20487;-81
2022/08/23 05:55:44;;;;;;;25.60;14.43;;;;;;;19.53;65.75;93443.75;4974248;28;20022;-80
2022/08/23 05:58:09;;;;;;;21.02;13.02;;;;;;;19.60;65.25;93435.66;4974351;28;20034;-82
2022/08/23 06:00:35;;;;;;;31.67;12.82;;;;;;;19.79;65.38;93452.72;4975742;28;20062;-82
2022/08/23 06:03:00;;;;;;;21.33;14.43;;;;;;;20.04;65.39;93492.13;4965374;28;20034;-81
2022/08/23 06:05:26;;;;;;;18.17;12.25;;;;;;;20.17;64.75;93503.41;4973730;28;20022;-81
2022/08/23 06:07:52;;;;;;;17.17;11.40;;;;;;;19.90;64.42;93477.81;4972018;28;20062;-81
2022/08/23 06:10:19;;;;;;;24.95;14.25;;;;;;;20.18;64.99;93513.06;4969454;28;20034;-81
2022/08/23 06:12:44;;;;;;;19.35;11.95;;;;;;;19.88;64.64;93455.84;4972623;28;20102;-81
2022/08/23 06:15:10;;;;;;;20.20;12.30;;;;;;;20.27;64.37;93516.16;4973538;28;20426;-81
2022/08/23 06:17:36;;;;;;;19.25;12.02;;;;;;;20.18;65.00;93518.44;4974301;28;20026;-81
2022/08/23 06:20:02;;;;;;;20.13;13.50;;;;;;;19.73;65.10;93498.94;4972775;28;20081;-80
2022/08/23 06:22:28;;;;;;;20.63;13.70;;;;;;;19.64;66.02;93498.53;4973554;28;20449;-82
2022/08/23 06:24:54;;;;;;;20.83;14.32;;;;;;;19.97;65.69;93535.28;4971720;28;20030;-81
2022/08/23 06:27:19;;;;;;;23.88;14.30;;;;;;;19.64;65.85;93533.59;4973479;28;20038;-80
2022/08/23 06:29:45;;;;;;;21.27;13.32;;;;;;;19.37;66.55;93480.22;4974092;28;20425;-82
2022/08/23 06:32:10;;;;;;;21.95;13.35;;;;;;;19.95;66.88;93520.63;4960333;28;20049;-81
2022/08/23 06:34:37;;;;;;;20.20;12.60;;;;;;;19.98;65.33;93526.06;4975442;28;20054;-80
2022/08/23 06:37:09;;;;;;;19.27;13.05;;;;;;;19.59;65.92;93514.28;4971723;28;20023;-82
2022/08/23 06:39:36;;;;;;;22.48;13.70;;;;;;;19.60;66.56;93508.50;4974638;28;20035;-81
2022/08/23 06:42:06;;;;;;;19.05;13.30;;;;;;;19.70;66.02;93515.88;4974682;28;20022;-81
2022/08/23 06:44:34;;;;;;;20.52;13.82;;;;;;;20.01;65.91;93543.41;4973750;28;20054;-81
2022/08/23 06:46:59;;;;;;;22.70;14.15;;;;;;;;;;4972196;28;20561;-82
2022/08/23 06:49:26;;;;;;;19.20;13.20;;;;;;;19.81;66.31;93536.75;4962093;28;20027;-80
2022/08/23 06:51:54;;;;;;;17.35;11.85;;;;;;;20.04;65.61;93556.16;4973643;28;20031;-80
2022/08/23 06:54:24;;;;;;;18.60;11.18;;;;;;;19.83;65.84;93556.03;4971061;28;20041;-80
2022/08/23 06:56:50;;;;;;;18.25;11.95;;;;;;;19.89;65.84;93552.63;4974178;28;20034;-81
2022/08/23 06:59:16;;;;;;;15.52;11.27;;;;;;;19.51;64.82;93497.28;4955127;28;20105;-81
2022/08/23 07:01:46;;;;;;;18.70;12.45;;;;;;;19.50;65.04;93484.97;4971788;28;20061;-82
2022/08/23 07:04:13;;;;;;;17.85;11.85;;;;;;;19.71;65.20;93503.16;4968524;28;20034;-81
2022/08/23 07:06:42;;;;;;;18.08;12.63;;;;;;;19.78;65.33;93518.63;4950968;28;20272;-81
2022/08/23 07:09:07;;;;;;;13.65;9.63;;;;;;;20.02;64.10;93536.84;4967880;28;20553;-81
2022/08/23 07:11:33;;;;;;;19.55;11.45;;;;;;;19.98;64.22;93503.69;4952343;28;20027;-82
2022/08/23 07:14:01;;;;;;;16.13;11.20;;;;;;;20.10;64.65;93496.00;4971084;28;20038;-80
2022/08/23 07:16:36;;;;;;;18.40;11.45;;;;;;;20.54;64.13;93536.28;4968696;28;20507;-80
2022/08/23 07:19:02;;;;;;;16.33;10.57;;;;;;;20.19;62.91;93470.63;4972645;28;20163;-80
2022/08/23 07:21:28;;;;;;;14.55;11.23;;;;;;;20.55;62.86;93508.13;4970470;28;22332;-82
2022/08/23 07:23:54;;;;;;;17.23;10.95;;;;;;;20.65;62.85;93520.13;4970986;28;20018;-81
2022/08/23 07:26:21;;;;;;;13.85;9.88;;;;;;;20.52;61.88;93513.53;4970348;28;20038;-81
2022/08/23 07:28:47;;;;;;;18.42;11.25;;;;;;;20.66;62.72;93542.50;4954218;28;20034;-80
2022/08/23 07:31:20;;;;;;;14.63;10.77;;;;;;;20.79;61.57;93546.38;4967767;28;20033;-79
2022/08/23 07:33:45;;;;;;;17.45;10.95;;;;;;;20.82;61.73;93545.63;4970288;28;20054;-80
2022/08/23 07:36:17;;;;;;;14.95;10.70;;;;;;;20.93;60.83;93546.44;4968109;28;20028;-79
2022/08/23 07:38:45;;;;;;;21.33;11.32;;;;;;;20.92;61.44;93545.66;4951534;28;20041;-80
2022/08/23 07:41:10;;;;;;;17.05;11.32;;;;;;;20.70;60.89;93510.84;4954835;28;20672;-79
2022/08/23 07:43:37;;;;;;;19.02;11.70;;;;;;;20.94;61.45;93547.97;4972061;28;20110;-80
2022/08/23 07:46:02;;;;;;;15.35;10.57;;;;;;;20.89;62.06;93545.66;4970014;28;20489;-81
2022/08/23 07:48:28;;;;;;;14.40;9.93;;;;;;;20.50;61.86;93503.09;4972642;28;20038;-79
2022/08/23 07:50:56;;;;;;;17.98;11.02;;;;;;;20.24;61.46;93522.31;4970187;28;20023;-79
2022/08/23 07:53:23;;;;;;;18.35;10.18;;;;;;;20.47;61.23;93546.31;4970573;28;20373;-79
2022/08/23 07:55:52;;;;;;;15.25;10.27;;;;;;;20.45;61.50;93533.19;4972301;28;20060;-81
2022/08/23 07:58:19;;;;;;;16.92;11.65;;;;;;;20.64;62.80;93536.69;4973182;28;20023;-80
2022/08/23 08:00:45;;;;;;;15.88;10.32;;;;;;;20.61;63.02;93524.75;4961044;28;20431;-80
2022/08/23 08:03:13;;;;;;;16.15;10.50;;;;;;;20.74;62.15;93527.84;4972302;28;20050;-81
2022/08/23 08:05:40;;;;;;;18.05;10.98;;;;;;;20.89;62.18;93519.41;4970909;28;20125;-80
2022/08/23 08:08:06;;;;;;;16.25;10.77;;;;;;;20.93;60.92;93525.59;4973562;28;20038;-79
2022/08/23 08:10:34;;;;;;;18.05;15.10;;;;;;;21.09;61.27;93533.31;4960968;28;20327;-78
2022/08/23 08:13:00;;;;;;;14.23;10.45;;;;;;;21.27;58.28;93549.53;4968691;28;20034;-78
2022/08/23 08:15:25;;;;;;;15.60;10.20;;;;;;;21.18;58.61;93541.81;4968279;28;20049;-79
2022/08/23 08:17:51;;;;;;;16.08;10.57;;;;;;;21.13;59.05;93563.84;4956712;28;20478;-79
2022/08/23 08:20:18;;;;;;;15.18;10.60;;;;;;;21.11;59.63;93579.69;4971048;28;20118;-81
2022/08/23 08:22:44;;;;;;;16.55;10.27;;;;;;;21.07;59.97;93583.53;4972656;28;20023;-79
2022/08/23 08:25:10;;;;;;;14.63;10.38;;;;;;;19.57;59.77;93363.59;4970691;28;20490;-80
2022/08/23 08:27:36;;;;;;;17.15;11.40;;;;;;;19.66;60.08;93358.63;4973812;28;20038;-79
2022/08/23 08:30:04;;;;;;;16.00;10.98;;;;;;;20.54;60.50;93514.69;4972494;28;20022;-79
2022/08/23 08:32:29;;;;;;;17.05;11.82;;;;;;;20.00;59.53;93431.19;4953611;28;20061;-81
2022/08/23 08:34:55;;;;;;;16.65;10.63;;;;;;;19.96;59.52;93395.31;4973153;28;20038;-78
2022/08/23 08:37:20;;;;;;;15.00;10.60;;;;;;;21.32;60.28;93584.31;4969063;28;20030;-80
2022/08/23 08:39:46;;;;;;;18.52;10.20;;;;;;;21.42;61.33;93589.72;4973195;28;20038;-79
2022/08/23 08:42:11;;;;;;;16.63;10.50;;;;;;;20.92;60.14;93496.25;4971734;28;20035;-80
2022/08/23 08:44:37;;;;;;;15.70;10.68;;;;;;;21.26;58.75;93542.59;4951212;28;20142;-81
2022/08/23 08:47:35;;;;;;;16.85;10.80;;;;;;;21.62;58.39;93576.59;4971810;28;20350;-81
2022/08/23 08:50:17;;;;;;;15.88;10.55;;;;;;;20.11;59.08;93340.22;4963373;28;20121;-80
2022/08/23 08:53:04;;;;;;;14.75;9.93;;;;;;;21.76;58.22;93575.81;4950523;28;20162;-79
2022/08/23 08:55:41;;;;;;;18.55;12.63;;;;;;;21.68;58.49;93574.28;4955187;28;20374;-80
2022/08/23 08:58:21;;;;;;;13.38;10.88;;;;;;;21.03;59.13;93448.34;4963826;28;20038;-81
2022/08/23 09:00:47;;;;;;;14.50;11.18;;;;;;;21.32;57.62;93490.41;4972144;28;20027;-80
2022/08/23 09:03:15;;;;;;;14.40;10.65;;;;;;;21.30;57.70;93467.66;4965635;28;21098;-79
2022/08/23 09:05:56;;;;;;;16.10;11.45;;;;;;;21.57;57.51;93505.88;4971963;28;20027;-79
2022/08/23 09:08:49;;;;;;;17.13;10.75;;;;;;;21.96;57.88;93552.56;4963772;28;20129;-81
2022/08/23 09:11:34;;;;;;;17.23;11.77;;;;;;;21.81;58.18;93513.16;4952695;28;20093;-82
2022/08/23 09:14:34;;;;;;;14.10;10.73;;;;;;;21.67;56.52;93488.84;4970935;28;20106;-81
2022/08/23 09:17:14;;;;;;;13.50;9.88;;;;;;;22.06;56.19;93540.16;4971819;28;20026;-80
2022/08/23 09:19:40;;;;;;;15.38;10.32;;;;;;;22.08;56.40;93535.13;4969966;28;20057;-80
2022/08/23 09:22:14;;;;;;;17.75;10.80;;;;;;;21.93;56.62;93515.47;4972763;28;20693;-81
2022/08/23 09:24:40;;;;;;;15.15;10.57;;;;;;;22.10;55.81;93538.97;4971254;28;20027;-79
2022/08/23 09:27:08;;;;;;;20.30;10.82;;;;;;;21.97;56.08;93513.50;4968132;28;20121;-80
2022/08/23 09:29:36;;;;;;;15.88;11.18;;;;;;;22.02;55.36;93515.81;4969009;28;20018;-80
2022/08/23 09:32:05;;;;;;;13.88;10.55;;;;;;;22.05;55.76;93533.97;4969174;28;20089;-80
2022/08/23 09:34:36;;;;;;;17.10;10.52;;;;;;;22.10;56.79;93538.97;4963698;28;20518;-81
2022/08/23 09:37:17;;;;;;;15.23;10.52;;;;;;;21.99;55.55;93540.97;4943968;28;20083;-80
2022/08/23 09:39:48;;;;;;;15.57;11.10;;;;;;;21.84;56.00;93523.22;4960935;28;20221;-81
2022/08/23 09:42:35;;;;;;;17.00;10.52;;;;;;;21.97;56.07;93539.81;4967215;28;20422;-80
2022/08/23 09:45:26;;;;;;;16.33;9.63;;;;;;;21.94;55.39;93541.38;4967626;28;20033;-80
2022/08/23 09:47:52;;;;;;;14.55;10.27;;;;;;;22.02;53.93;93534.75;4949552;28;20046;-81
2022/08/23 09:50:32;;;;;;;13.13;9.82;;;;;;;21.77;54.10;93501.56;4970154;28;20089;-80
2022/08/23 09:53:01;;;;;;;15.35;10.45;;;;;;;22.11;55.38;93554.06;4968567;28;20510;-80
2022/08/23 09:55:38;;;;;;;16.00;11.43;;;;;;;21.98;55.15;93517.75;4970391;28;20490;-80
2022/08/23 09:58:14;;;;;;;17.42;10.93;;;;;;;22.02;54.61;93518.53;4959283;28;20028;-80
2022/08/23 10:00:40;;;;;;;13.65;9.82;;;;;;;21.98;54.55;93506.94;4967398;28;20039;-80
2022/08/23 10:03:35;;;;;;;14.38;10.60;;;;;;;22.35;54.18;93552.47;4967940;28;20034;-80
2022/08/23 10:06:01;;;;;;;12.98;9.50;;;;;;;22.19;54.53;93533.16;4958220;28;20493;-80
2022/08/23 10:08:36;;;;;;;11.60;9.13;;;;;;;22.35;54.10;93547.03;4971047;28;20026;-80
2022/08/23 10:11:23;;;;;;;11.35;9.30;;;;;;;22.50;51.82;93545.03;4962685;28;20025;-80
2022/08/23 10:13:49;;;;;;;12.63;10.23;;;;;;;22.51;52.28;93550.06;4975246;28;20077;-79
2022/08/23 10:16:45;;;;;;;10.82;7.30;;;;;;;22.31;50.78;93524.63;4964851;28;20477;-79
2022/08/23 10:19:31;;;;;;;10.63;7.45;;;;;;;22.51;50.67;93547.38;4974914;28;20026;-80
2022/08/23 10:22:14;;;;;;;8.25;6.40;;;;;;;22.32;53.69;93542.41;4974820;28;20410;-80
2022/08/23 10:25:02;;;;;;;12.35;8.55;;;;;;;22.43;51.93;93547.81;4973023;28;20061;-80
2022/08/23 10:31:00;;;;;;;13.38;7.80;;;;;;;22.60;51.76;93549.63;4974020;28;20077;-80
2022/08/23 10:33:50;;;;;;;14.90;9.57;;;;;;;22.30;51.90;93506.81;4957174;28;20537;-80
2022/08/23 10:36:59;;;;;;;10.75;8.27;;;;;;;22.58;50.42;93539.22;4954847;28;20130;-81
2022/08/23 10:39:28;;;;;;;11.02;7.60;;;;;;;22.49;49.44;93532.66;4956509;28;20128;-80
2022/08/23 10:42:30;;;;;;;12.38;7.88;;;;;;;22.40;50.64;93543.16;4974229;28;20113;-81
2022/08/23 10:45:08;;;;;;;10.02;7.93;;;;;;;22.52;51.74;93537.31;4974498;28;20437;-79
2022/08/23 10:47:37;;;;;;;10.20;7.97;;;;;;;22.43;51.82;93504.44;4959220;28;20027;-80
2022/08/23 10:50:15;;;;;;;10.35;7.95;;;;;;;22.53;51.45;93526.06;4973265;28;20022;-81
2022/08/23 10:52:54;;;;;;;13.43;8.40;;;;;;;22.39;50.80;93515.28;4962880;28;20620;-79
2022/08/23 10:55:53;;;;;;;9.10;7.63;;;;;;;22.34;50.34;93485.16;4962677;28;20053;-79
2022/08/23 10:58:24;;;;;;;12.13;8.32;;;;;;;22.62;51.04;93501.25;4973929;28;20031;-80
2022/08/23 11:00:52;;;;;;;13.30;8.18;;;;;;;22.74;51.66;93509.66;4971614;28;20034;-81
2022/08/23 11:04:02;;;;;;;12.15;8.48;;;;;;;22.88;53.56;93535.94;4973410;28;20026;-79
2022/08/23 11:06:43;;;;;;;12.55;8.13;;;;;;;22.97;51.95;93536.28;4932714;28;20182;-79
2022/08/23 11:09:09;;;;;;;10.50;7.88;;;;;;;22.96;52.56;93532.03;4973692;28;20088;-83
2022/08/23 11:12:12;;;;;;;10.02;7.53;;;;;;;23.08;50.75;93530.78;4970091;28;20093;-80
2022/08/23 11:14:46;;;;;;;10.40;7.20;;;;;;;23.14;51.29;93527.25;4973675;28;20571;-81
2022/08/23 11:17:24;;;;;;;11.75;8.80;;;;;;;22.88;52.11;93481.72;4962437;28;20050;-81
2022/08/23 11:19:58;;;;;;;13.77;9.52;;;;;;;23.20;51.98;93524.88;4955927;28;20046;-81
2022/08/23 11:22:30;;;;;;;10.98;8.38;;;;;;;23.26;51.25;93533.38;4972049;28;20026;-79
2022/08/23 11:25:25;;;;;;;13.30;7.95;;;;;;;23.28;51.64;93533.72;4972793;28;20410;-80
2022/08/23 11:28:19;;;;;;;13.37;7.87;;;;;;;23.30;52.40;93539.53;4971566;28;20434;-81
2022/08/23 11:31:08;;;;;;;10.25;7.78;;;;;;;23.32;52.60;93534.47;4954559;28;20077;-81
2022/08/23 11:33:42;;;;;;;12.95;7.50;;;;;;;23.02;52.65;93489.78;4950035;28;20471;-80
2022/08/23 11:36:07;;;;;;;11.75;8.02;;;;;;;23.34;52.66;93526.69;4971882;28;20019;-80
2022/08/23 11:38:48;;;;;;;13.48;8.77;;;;;;;23.43;53.88;93527.00;4973217;28;20282;-81
2022/08/23 11:41:13;;;;;;;12.48;7.35;;;;;;;23.35;56.76;93528.25;4974085;28;20014;-81
2022/08/23 11:43:41;;;;;;;9.95;8.23;;;;;;;23.17;55.42;93493.88;4971603;28;20593;-80
2022/08/23 11:46:22;;;;;;;10.23;8.20;;;;;;;23.39;57.53;93521.63;4972355;28;20034;-81
2022/08/23 11:48:53;;;;;;;11.30;7.70;;;;;;;23.35;56.77;93515.44;4955991;28;20031;-80